sensor_id;sensor_type;location;lat;lon;timestamp;P1;durP1;ratioP1;P2;durP2;ratioP2
19687;SDS011;9993;52.008;4.732;2022-10-31T00:01:53;9.07;;;5.10;;
19687;SDS011;9993;52.008;4.732;2022-10-31T00:04:18;9.20;;;5.88;;
19687;SDS011;9993;52.008;4.732;2022-10-31T00:06:43;7.32;;;4.85;;
19687;SDS011;9993;52.008;4.732;2022-10-31T00:09:08;5.97;;;5.07;;
19687;SDS011;9993;52.008;4.732;2022-10-31T00:11:34;6.57;;;4.80;;
19687;SDS011;9993;52.008;4.732;2022-10-31T00:13:59;9.27;;;5.45;;
19687;SDS011;9993;52.008;4.732;2022-10-31T00:16:25;7.90;;;5.10;;
19687;SDS011;9993;52.008;4.732;2022-10-31T00:18:51;7.38;;;5.72;;
19687;SDS011;9993;52.008;4.732;2022-10-31T00:21:16;9.02;;;5.60;;
19687;SDS011;9993;52.008;4.732;2022-10-31T00:23:41;9.02;;;5.75;;
19687;SDS011;9993;52.008;4.732;2022-10-31T00:26:07;6.90;;;5.10;;
19687;SDS011;9993;52.008;4.732;2022-10-31T00:28:32;6.38;;;4.57;;
19687;SDS011;9993;52.008;4.732;2022-10-31T00:30:58;6.87;;;4.80;;
19687;SDS011;9993;52.008;4.732;2022-10-31T00:33:23;8.40;;;4.97;;
19687;SDS011;9993;52.008;4.732;2022-10-31T00:35:49;7.82;;;5.30;;
19687;SDS011;9993;52.008;4.732;2022-10-31T00:38:15;7.97;;;5.70;;
19687;SDS011;9993;52.008;4.732;2022-10-31T00:40:40;7.27;;;5.27;;
19687;SDS011;9993;52.008;4.732;2022-10-31T00:43:05;7.95;;;5.50;;
19687;SDS011;9993;52.008;4.732;2022-10-31T00:45:30;6.47;;;4.80;;
19687;SDS011;9993;52.008;4.732;2022-10-31T00:47:55;6.63;;;5.77;;
19687;SDS011;9993;52.008;4.732;2022-10-31T00:50:21;9.83;;;5.37;;
19687;SDS011;9993;52.008;4.732;2022-10-31T00:52:46;8.70;;;5.70;;
19687;SDS011;9993;52.008;4.732;2022-10-31T00:55:11;7.93;;;5.40;;
19687;SDS011;9993;52.008;4.732;2022-10-31T00:57:36;9.93;;;6.07;;
19687;SDS011;9993;52.008;4.732;2022-10-31T01:00:02;8.70;;;6.00;;
19687;SDS011;9993;52.008;4.732;2022-10-31T01:02:27;8.60;;;6.67;;
19687;SDS011;9993;52.008;4.732;2022-10-31T01:04:52;11.70;;;6.65;;
19687;SDS011;9993;52.008;4.732;2022-10-31T01:07:18;9.93;;;7.45;;
19687;SDS011;9993;52.008;4.732;2022-10-31T01:09:43;13.50;;;8.67;;
19687;SDS011;9993;52.008;4.732;2022-10-31T01:12:08;12.67;;;8.27;;
19687;SDS011;9993;52.008;4.732;2022-10-31T01:14:33;14.87;;;9.00;;
19687;SDS011;9993;52.008;4.732;2022-10-31T01:16:58;12.73;;;9.80;;
19687;SDS011;9993;52.008;4.732;2022-10-31T01:19:23;15.07;;;10.07;;
19687;SDS011;9993;52.008;4.732;2022-10-31T01:21:49;18.13;;;10.60;;
19687;SDS011;9993;52.008;4.732;2022-10-31T01:24:14;16.10;;;10.80;;
19687;SDS011;9993;52.008;4.732;2022-10-31T01:26:39;15.63;;;10.93;;
19687;SDS011;9993;52.008;4.732;2022-10-31T01:29:05;17.38;;;11.23;;
19687;SDS011;9993;52.008;4.732;2022-10-31T01:31:32;17.45;;;11.32;;
19687;SDS011;9993;52.008;4.732;2022-10-31T01:33:58;18.15;;;11.75;;
19687;SDS011;9993;52.008;4.732;2022-10-31T01:36:25;20.10;;;12.10;;
19687;SDS011;9993;52.008;4.732;2022-10-31T01:38:51;18.33;;;11.05;;
19687;SDS011;9993;52.008;4.732;2022-10-31T01:41:19;15.63;;;11.27;;
19687;SDS011;9993;52.008;4.732;2022-10-31T01:43:52;19.00;;;12.10;;
19687;SDS011;9993;52.008;4.732;2022-10-31T01:46:24;17.10;;;11.73;;
19687;SDS011;9993;52.008;4.732;2022-10-31T01:48:51;16.97;;;11.80;;
19687;SDS011;9993;52.008;4.732;2022-10-31T01:51:17;20.37;;;12.20;;
19687;SDS011;9993;52.008;4.732;2022-10-31T01:53:45;20.70;;;12.50;;
19687;SDS011;9993;52.008;4.732;2022-10-31T01:56:11;17.07;;;11.70;;
19687;SDS011;9993;52.008;4.732;2022-10-31T01:58:37;17.97;;;11.53;;
19687;SDS011;9993;52.008;4.732;2022-10-31T02:01:02;18.67;;;12.93;;
19687;SDS011;9993;52.008;4.732;2022-10-31T02:03:28;18.75;;;12.18;;
19687;SDS011;9993;52.008;4.732;2022-10-31T02:05:54;18.87;;;12.67;;
19687;SDS011;9993;52.008;4.732;2022-10-31T02:08:30;18.80;;;12.47;;
19687;SDS011;9993;52.008;4.732;2022-10-31T02:10:56;17.97;;;12.53;;
19687;SDS011;9993;52.008;4.732;2022-10-31T02:13:21;16.23;;;12.13;;
19687;SDS011;9993;52.008;4.732;2022-10-31T02:15:49;19.23;;;12.77;;
19687;SDS011;9993;52.008;4.732;2022-10-31T02:18:15;21.47;;;13.40;;
19687;SDS011;9993;52.008;4.732;2022-10-31T02:31:05;20.70;;;13.93;;
19687;SDS011;9993;52.008;4.732;2022-10-31T02:40:05;26.67;;;15.43;;
19687;SDS011;9993;52.008;4.732;2022-10-31T02:42:37;23.00;;;14.93;;
19687;SDS011;9993;52.008;4.732;2022-10-31T02:45:06;19.40;;;14.40;;
19687;SDS011;9993;52.008;4.732;2022-10-31T02:47:34;20.90;;;15.20;;
19687;SDS011;9993;52.008;4.732;2022-10-31T02:52:30;17.83;;;13.70;;
19687;SDS011;9993;52.008;4.732;2022-10-31T02:54:56;19.30;;;12.90;;
19687;SDS011;9993;52.008;4.732;2022-10-31T02:57:26;19.97;;;16.00;;
19687;SDS011;9993;52.008;4.732;2022-10-31T02:59:54;18.70;;;13.67;;
19687;SDS011;9993;52.008;4.732;2022-10-31T03:05:01;20.83;;;14.50;;
19687;SDS011;9993;52.008;4.732;2022-10-31T03:07:30;16.88;;;10.60;;
19687;SDS011;9993;52.008;4.732;2022-10-31T03:10:14;16.23;;;11.10;;
19687;SDS011;9993;52.008;4.732;2022-10-31T03:15:26;13.70;;;10.80;;
19687;SDS011;9993;52.008;4.732;2022-10-31T03:20:18;14.17;;;9.97;;
19687;SDS011;9993;52.008;4.732;2022-10-31T03:22:46;14.30;;;10.07;;
19687;SDS011;9993;52.008;4.732;2022-10-31T03:25:11;14.20;;;9.77;;
19687;SDS011;9993;52.008;4.732;2022-10-31T03:27:37;13.10;;;9.97;;
19687;SDS011;9993;52.008;4.732;2022-10-31T03:30:04;14.53;;;11.07;;
19687;SDS011;9993;52.008;4.732;2022-10-31T03:32:31;14.90;;;11.13;;
19687;SDS011;9993;52.008;4.732;2022-10-31T03:34:59;13.83;;;11.20;;
19687;SDS011;9993;52.008;4.732;2022-10-31T03:37:26;13.70;;;9.43;;
19687;SDS011;9993;52.008;4.732;2022-10-31T03:39:52;18.97;;;14.83;;
19687;SDS011;9993;52.008;4.732;2022-10-31T03:42:21;20.97;;;14.40;;
19687;SDS011;9993;52.008;4.732;2022-10-31T03:44:48;22.38;;;17.92;;
19687;SDS011;9993;52.008;4.732;2022-10-31T03:47:15;21.10;;;15.10;;
19687;SDS011;9993;52.008;4.732;2022-10-31T03:49:41;19.80;;;12.87;;
19687;SDS011;9993;52.008;4.732;2022-10-31T03:54:40;19.60;;;13.97;;
19687;SDS011;9993;52.008;4.732;2022-10-31T03:57:14;21.30;;;13.83;;
19687;SDS011;9993;52.008;4.732;2022-10-31T03:59:44;19.20;;;13.90;;
19687;SDS011;9993;52.008;4.732;2022-10-31T04:02:11;22.03;;;14.77;;
19687;SDS011;9993;52.008;4.732;2022-10-31T04:04:37;21.77;;;14.70;;
19687;SDS011;9993;52.008;4.732;2022-10-31T04:07:03;21.43;;;14.70;;
19687;SDS011;9993;52.008;4.732;2022-10-31T04:09:31;21.90;;;14.30;;
19687;SDS011;9993;52.008;4.732;2022-10-31T04:11:57;29.27;;;21.10;;
19687;SDS011;9993;52.008;4.732;2022-10-31T04:14:24;27.67;;;18.27;;
19687;SDS011;9993;52.008;4.732;2022-10-31T04:16:49;30.40;;;20.30;;
19687;SDS011;9993;52.008;4.732;2022-10-31T04:19:15;24.83;;;15.90;;
19687;SDS011;9993;52.008;4.732;2022-10-31T04:21:40;24.53;;;16.50;;
19687;SDS011;9993;52.008;4.732;2022-10-31T04:24:08;22.80;;;15.57;;
19687;SDS011;9993;52.008;4.732;2022-10-31T04:26:33;22.53;;;16.00;;
19687;SDS011;9993;52.008;4.732;2022-10-31T04:28:58;23.23;;;15.33;;
19687;SDS011;9993;52.008;4.732;2022-10-31T04:31:23;31.37;;;21.07;;
19687;SDS011;9993;52.008;4.732;2022-10-31T04:33:48;29.47;;;18.37;;
19687;SDS011;9993;52.008;4.732;2022-10-31T04:36:14;25.13;;;16.23;;
19687;SDS011;9993;52.008;4.732;2022-10-31T04:38:39;25.13;;;15.97;;
19687;SDS011;9993;52.008;4.732;2022-10-31T04:41:04;26.40;;;16.17;;
19687;SDS011;9993;52.008;4.732;2022-10-31T04:43:29;24.87;;;15.50;;
19687;SDS011;9993;52.008;4.732;2022-10-31T04:45:55;25.27;;;15.80;;
19687;SDS011;9993;52.008;4.732;2022-10-31T04:48:20;34.43;;;24.13;;
19687;SDS011;9993;52.008;4.732;2022-10-31T04:50:45;26.13;;;17.13;;
19687;SDS011;9993;52.008;4.732;2022-10-31T04:53:10;38.30;;;18.07;;
19687;SDS011;9993;52.008;4.732;2022-10-31T04:55:36;24.97;;;15.77;;
19687;SDS011;9993;52.008;4.732;2022-10-31T04:58:01;34.40;;;23.33;;
19687;SDS011;9993;52.008;4.732;2022-10-31T05:00:26;27.03;;;18.83;;
19687;SDS011;9993;52.008;4.732;2022-10-31T05:02:53;37.97;;;23.63;;
19687;SDS011;9993;52.008;4.732;2022-10-31T05:05:19;28.30;;;17.50;;
19687;SDS011;9993;52.008;4.732;2022-10-31T05:07:45;25.13;;;16.33;;
19687;SDS011;9993;52.008;4.732;2022-10-31T05:10:12;28.47;;;16.83;;
19687;SDS011;9993;52.008;4.732;2022-10-31T05:12:38;25.87;;;16.33;;
19687;SDS011;9993;52.008;4.732;2022-10-31T05:15:04;25.70;;;15.37;;
19687;SDS011;9993;52.008;4.732;2022-10-31T05:17:30;33.50;;;22.23;;
19687;SDS011;9993;52.008;4.732;2022-10-31T05:19:55;30.47;;;18.60;;
19687;SDS011;9993;52.008;4.732;2022-10-31T05:22:20;29.03;;;16.80;;
19687;SDS011;9993;52.008;4.732;2022-10-31T05:24:45;35.10;;;23.50;;
19687;SDS011;9993;52.008;4.732;2022-10-31T05:27:11;27.97;;;17.13;;
19687;SDS011;9993;52.008;4.732;2022-10-31T05:29:36;36.33;;;22.73;;
19687;SDS011;9993;52.008;4.732;2022-10-31T05:32:01;32.63;;;18.20;;
19687;SDS011;9993;52.008;4.732;2022-10-31T05:34:26;24.90;;;16.53;;
19687;SDS011;9993;52.008;4.732;2022-10-31T05:36:51;26.33;;;15.23;;
19687;SDS011;9993;52.008;4.732;2022-10-31T05:39:16;27.77;;;16.17;;
19687;SDS011;9993;52.008;4.732;2022-10-31T05:41:42;28.50;;;16.67;;
19687;SDS011;9993;52.008;4.732;2022-10-31T05:44:07;28.20;;;16.63;;
19687;SDS011;9993;52.008;4.732;2022-10-31T05:46:32;29.90;;;16.00;;
19687;SDS011;9993;52.008;4.732;2022-10-31T05:48:57;30.07;;;17.93;;
19687;SDS011;9993;52.008;4.732;2022-10-31T05:51:22;28.20;;;19.10;;
19687;SDS011;9993;52.008;4.732;2022-10-31T05:53:48;25.33;;;17.00;;
19687;SDS011;9993;52.008;4.732;2022-10-31T05:56:13;31.10;;;16.43;;
19687;SDS011;9993;52.008;4.732;2022-10-31T05:58:38;25.07;;;15.40;;
19687;SDS011;9993;52.008;4.732;2022-10-31T06:01:03;25.33;;;16.07;;
19687;SDS011;9993;52.008;4.732;2022-10-31T06:03:29;38.75;;;22.92;;
19687;SDS011;9993;52.008;4.732;2022-10-31T06:05:54;28.80;;;17.73;;
19687;SDS011;9993;52.008;4.732;2022-10-31T06:08:19;32.80;;;16.13;;
19687;SDS011;9993;52.008;4.732;2022-10-31T06:10:44;29.47;;;16.27;;
19687;SDS011;9993;52.008;4.732;2022-10-31T06:13:09;26.43;;;15.93;;
19687;SDS011;9993;52.008;4.732;2022-10-31T06:15:35;38.00;;;21.73;;
19687;SDS011;9993;52.008;4.732;2022-10-31T06:18:04;30.57;;;16.27;;
19687;SDS011;9993;52.008;4.732;2022-10-31T06:20:30;27.33;;;15.67;;
19687;SDS011;9993;52.008;4.732;2022-10-31T06:22:55;51.60;;;15.80;;
19687;SDS011;9993;52.008;4.732;2022-10-31T06:25:20;59.55;;;19.25;;
19687;SDS011;9993;52.008;4.732;2022-10-31T06:27:46;39.13;;;16.47;;
19687;SDS011;9993;52.008;4.732;2022-10-31T06:30:11;31.20;;;16.63;;
19687;SDS011;9993;52.008;4.732;2022-10-31T06:32:36;23.50;;;14.67;;
19687;SDS011;9993;52.008;4.732;2022-10-31T06:35:02;24.13;;;15.47;;
19687;SDS011;9993;52.008;4.732;2022-10-31T06:37:27;31.93;;;15.40;;
19687;SDS011;9993;52.008;4.732;2022-10-31T06:39:52;30.67;;;15.93;;
19687;SDS011;9993;52.008;4.732;2022-10-31T06:42:17;32.57;;;16.20;;
19687;SDS011;9993;52.008;4.732;2022-10-31T06:44:42;27.07;;;16.03;;
19687;SDS011;9993;52.008;4.732;2022-10-31T06:47:08;37.60;;;18.07;;
19687;SDS011;9993;52.008;4.732;2022-10-31T06:49:33;32.70;;;16.43;;
19687;SDS011;9993;52.008;4.732;2022-10-31T06:51:58;28.27;;;15.80;;
19687;SDS011;9993;52.008;4.732;2022-10-31T06:54:23;34.60;;;17.33;;
19687;SDS011;9993;52.008;4.732;2022-10-31T06:56:48;36.70;;;17.67;;
19687;SDS011;9993;52.008;4.732;2022-10-31T06:59:14;33.73;;;17.47;;
19687;SDS011;9993;52.008;4.732;2022-10-31T07:01:39;30.13;;;15.83;;
19687;SDS011;9993;52.008;4.732;2022-10-31T07:04:05;37.17;;;17.17;;
19687;SDS011;9993;52.008;4.732;2022-10-31T07:06:30;30.77;;;17.10;;
19687;SDS011;9993;52.008;4.732;2022-10-31T07:09:01;35.63;;;15.77;;
19687;SDS011;9993;52.008;4.732;2022-10-31T07:11:26;35.03;;;17.23;;
19687;SDS011;9993;52.008;4.732;2022-10-31T07:13:51;33.03;;;16.27;;
19687;SDS011;9993;52.008;4.732;2022-10-31T07:16:17;25.33;;;16.27;;
19687;SDS011;9993;52.008;4.732;2022-10-31T07:18:42;32.53;;;16.60;;
19687;SDS011;9993;52.008;4.732;2022-10-31T07:21:07;26.73;;;15.53;;
19687;SDS011;9993;52.008;4.732;2022-10-31T07:23:32;42.77;;;17.67;;
19687;SDS011;9993;52.008;4.732;2022-10-31T07:25:58;25.47;;;14.27;;
19687;SDS011;9993;52.008;4.732;2022-10-31T07:28:24;40.10;;;15.23;;
19687;SDS011;9993;52.008;4.732;2022-10-31T07:30:50;31.70;;;16.30;;
19687;SDS011;9993;52.008;4.732;2022-10-31T07:33:16;39.40;;;15.07;;
19687;SDS011;9993;52.008;4.732;2022-10-31T07:35:41;25.83;;;15.00;;
19687;SDS011;9993;52.008;4.732;2022-10-31T07:38:07;30.63;;;16.07;;
19687;SDS011;9993;52.008;4.732;2022-10-31T07:40:32;26.23;;;14.70;;
19687;SDS011;9993;52.008;4.732;2022-10-31T07:42:58;29.43;;;16.07;;
19687;SDS011;9993;52.008;4.732;2022-10-31T07:45:23;34.77;;;16.43;;
19687;SDS011;9993;52.008;4.732;2022-10-31T07:47:49;32.77;;;16.77;;
19687;SDS011;9993;52.008;4.732;2022-10-31T07:50:15;34.83;;;16.20;;
19687;SDS011;9993;52.008;4.732;2022-10-31T07:52:40;30.00;;;16.53;;
19687;SDS011;9993;52.008;4.732;2022-10-31T07:55:06;25.33;;;15.93;;
19687;SDS011;9993;52.008;4.732;2022-10-31T07:57:31;30.20;;;15.93;;
19687;SDS011;9993;52.008;4.732;2022-10-31T07:59:57;37.30;;;16.67;;
19687;SDS011;9993;52.008;4.732;2022-10-31T08:02:22;31.67;;;16.77;;
19687;SDS011;9993;52.008;4.732;2022-10-31T08:04:48;34.43;;;18.27;;
19687;SDS011;9993;52.008;4.732;2022-10-31T08:07:13;41.93;;;18.17;;
19687;SDS011;9993;52.008;4.732;2022-10-31T08:09:38;32.77;;;17.30;;
19687;SDS011;9993;52.008;4.732;2022-10-31T08:12:03;27.50;;;16.47;;
19687;SDS011;9993;52.008;4.732;2022-10-31T08:14:29;37.63;;;17.43;;
19687;SDS011;9993;52.008;4.732;2022-10-31T08:16:54;35.70;;;18.00;;
19687;SDS011;9993;52.008;4.732;2022-10-31T08:19:19;38.47;;;19.67;;
19687;SDS011;9993;52.008;4.732;2022-10-31T08:21:45;31.73;;;17.70;;
19687;SDS011;9993;52.008;4.732;2022-10-31T08:24:10;40.87;;;18.37;;
19687;SDS011;9993;52.008;4.732;2022-10-31T08:26:35;33.27;;;19.47;;
19687;SDS011;9993;52.008;4.732;2022-10-31T08:29:00;36.37;;;20.30;;
19687;SDS011;9993;52.008;4.732;2022-10-31T08:31:26;36.60;;;18.90;;
19687;SDS011;9993;52.008;4.732;2022-10-31T08:33:52;39.00;;;19.37;;
19687;SDS011;9993;52.008;4.732;2022-10-31T08:36:17;31.83;;;19.37;;
19687;SDS011;9993;52.008;4.732;2022-10-31T08:38:42;33.70;;;19.53;;
19687;SDS011;9993;52.008;4.732;2022-10-31T08:41:07;33.13;;;18.63;;
19687;SDS011;9993;52.008;4.732;2022-10-31T08:43:33;34.10;;;19.37;;
19687;SDS011;9993;52.008;4.732;2022-10-31T08:45:58;30.10;;;18.57;;
19687;SDS011;9993;52.008;4.732;2022-10-31T08:48:23;36.03;;;20.87;;
19687;SDS011;9993;52.008;4.732;2022-10-31T08:50:48;35.00;;;20.57;;
19687;SDS011;9993;52.008;4.732;2022-10-31T08:53:14;34.40;;;18.13;;
19687;SDS011;9993;52.008;4.732;2022-10-31T08:55:40;31.93;;;19.63;;
19687;SDS011;9993;52.008;4.732;2022-10-31T08:58:07;31.67;;;19.87;;
19687;SDS011;9993;52.008;4.732;2022-10-31T09:00:32;32.67;;;19.37;;
19687;SDS011;9993;52.008;4.732;2022-10-31T09:02:58;35.10;;;20.10;;
19687;SDS011;9993;52.008;4.732;2022-10-31T09:05:24;33.67;;;19.40;;
19687;SDS011;9993;52.008;4.732;2022-10-31T09:07:49;41.47;;;20.93;;
19687;SDS011;9993;52.008;4.732;2022-10-31T09:10:15;35.20;;;20.38;;
19687;SDS011;9993;52.008;4.732;2022-10-31T09:12:40;33.20;;;19.75;;
19687;SDS011;9993;52.008;4.732;2022-10-31T09:15:06;39.85;;;21.25;;
19687;SDS011;9993;52.008;4.732;2022-10-31T09:17:31;34.13;;;20.15;;
19687;SDS011;9993;52.008;4.732;2022-10-31T09:19:57;32.70;;;20.08;;
19687;SDS011;9993;52.008;4.732;2022-10-31T09:22:22;40.13;;;21.85;;
19687;SDS011;9993;52.008;4.732;2022-10-31T09:24:47;38.17;;;21.85;;
19687;SDS011;9993;52.008;4.732;2022-10-31T09:27:12;38.70;;;22.15;;
19687;SDS011;9993;52.008;4.732;2022-10-31T09:29:37;39.08;;;20.83;;
19687;SDS011;9993;52.008;4.732;2022-10-31T09:32:03;35.53;;;20.20;;
19687;SDS011;9993;52.008;4.732;2022-10-31T09:34:28;38.83;;;21.33;;
19687;SDS011;9993;52.008;4.732;2022-10-31T09:36:53;33.65;;;21.27;;
19687;SDS011;9993;52.008;4.732;2022-10-31T09:39:18;41.60;;;24.10;;
19687;SDS011;9993;52.008;4.732;2022-10-31T09:51:37;40.28;;;26.85;;
19687;SDS011;9993;52.008;4.732;2022-10-31T09:56:30;33.13;;;21.70;;
19687;SDS011;9993;52.008;4.732;2022-10-31T09:58:56;32.45;;;20.80;;
19687;SDS011;9993;52.008;4.732;2022-10-31T10:04:27;30.65;;;17.42;;
19687;SDS011;9993;52.008;4.732;2022-10-31T10:06:44;32.83;;;19.90;;
19687;SDS011;9993;52.008;4.732;2022-10-31T10:09:10;29.92;;;18.17;;
19687;SDS011;9993;52.008;4.732;2022-10-31T10:11:52;29.98;;;17.67;;
19687;SDS011;9993;52.008;4.732;2022-10-31T10:24:39;23.85;;;16.17;;
19687;SDS011;9993;52.008;4.732;2022-10-31T10:29:40;28.25;;;18.60;;
19687;SDS011;9993;52.008;4.732;2022-10-31T10:32:12;27.27;;;17.55;;
19687;SDS011;9993;52.008;4.732;2022-10-31T10:35:26;26.65;;;16.88;;
19687;SDS011;9993;52.008;4.732;2022-10-31T10:37:32;31.73;;;17.73;;
19687;SDS011;9993;52.008;4.732;2022-10-31T10:40:13;31.52;;;18.27;;
19687;SDS011;9993;52.008;4.732;2022-10-31T10:42:40;24.92;;;17.20;;
19687;SDS011;9993;52.008;4.732;2022-10-31T10:45:25;25.95;;;17.10;;
19687;SDS011;9993;52.008;4.732;2022-10-31T10:48:26;24.55;;;16.58;;
19687;SDS011;9993;52.008;4.732;2022-10-31T10:50:54;26.58;;;16.67;;
19687;SDS011;9993;52.008;4.732;2022-10-31T10:56:02;24.42;;;17.20;;
19687;SDS011;9993;52.008;4.732;2022-10-31T10:58:29;30.15;;;17.80;;
19687;SDS011;9993;52.008;4.732;2022-10-31T11:00:54;26.85;;;16.65;;
19687;SDS011;9993;52.008;4.732;2022-10-31T11:03:20;29.98;;;16.67;;
19687;SDS011;9993;52.008;4.732;2022-10-31T11:05:55;24.98;;;16.70;;
19687;SDS011;9993;52.008;4.732;2022-10-31T11:08:27;25.45;;;16.65;;
19687;SDS011;9993;52.008;4.732;2022-10-31T11:13:23;27.23;;;16.63;;
19687;SDS011;9993;52.008;4.732;2022-10-31T11:15:51;23.85;;;17.08;;
19687;SDS011;9993;52.008;4.732;2022-10-31T11:18:19;24.35;;;16.48;;
19687;SDS011;9993;52.008;4.732;2022-10-31T11:20:49;26.52;;;16.50;;
19687;SDS011;9993;52.008;4.732;2022-10-31T11:23:16;29.25;;;15.57;;
19687;SDS011;9993;52.008;4.732;2022-10-31T11:26:19;27.33;;;15.32;;
19687;SDS011;9993;52.008;4.732;2022-10-31T11:28:33;24.23;;;16.08;;
19687;SDS011;9993;52.008;4.732;2022-10-31T11:31:08;22.45;;;14.80;;
19687;SDS011;9993;52.008;4.732;2022-10-31T11:33:44;21.08;;;15.23;;
19687;SDS011;9993;52.008;4.732;2022-10-31T11:36:21;22.05;;;15.98;;
19687;SDS011;9993;52.008;4.732;2022-10-31T11:38:47;25.58;;;16.15;;
19687;SDS011;9993;52.008;4.732;2022-10-31T11:41:34;27.50;;;15.50;;
19687;SDS011;9993;52.008;4.732;2022-10-31T11:44:00;27.65;;;16.58;;
19687;SDS011;9993;52.008;4.732;2022-10-31T11:48:54;22.83;;;14.77;;
19687;SDS011;9993;52.008;4.732;2022-10-31T11:51:27;27.52;;;16.80;;
19687;SDS011;9993;52.008;4.732;2022-10-31T11:53:54;21.80;;;15.85;;
19687;SDS011;9993;52.008;4.732;2022-10-31T11:56:20;21.70;;;14.85;;
19687;SDS011;9993;52.008;4.732;2022-10-31T11:58:55;22.88;;;15.68;;
19687;SDS011;9993;52.008;4.732;2022-10-31T12:01:25;25.00;;;15.85;;
19687;SDS011;9993;52.008;4.732;2022-10-31T12:03:54;26.42;;;16.42;;
19687;SDS011;9993;52.008;4.732;2022-10-31T12:06:23;22.25;;;15.07;;
19687;SDS011;9993;52.008;4.732;2022-10-31T12:08:50;27.80;;;16.38;;
19687;SDS011;9993;52.008;4.732;2022-10-31T12:14:02;21.98;;;14.95;;
19687;SDS011;9993;52.008;4.732;2022-10-31T12:16:39;26.08;;;15.18;;
19687;SDS011;9993;52.008;4.732;2022-10-31T12:19:12;26.83;;;15.65;;
19687;SDS011;9993;52.008;4.732;2022-10-31T12:21:42;26.95;;;15.35;;
19687;SDS011;9993;52.008;4.732;2022-10-31T12:45:50;34.97;;;17.92;;
19687;SDS011;9993;52.008;4.732;2022-10-31T12:55:44;30.65;;;18.67;;
19687;SDS011;9993;52.008;4.732;2022-10-31T12:58:21;27.75;;;17.95;;
19687;SDS011;9993;52.008;4.732;2022-10-31T13:00:47;33.00;;;18.52;;
19687;SDS011;9993;52.008;4.732;2022-10-31T13:05:49;32.33;;;17.52;;
19687;SDS011;9993;52.008;4.732;2022-10-31T13:08:17;30.38;;;17.65;;
19687;SDS011;9993;52.008;4.732;2022-10-31T13:11:44;28.38;;;17.95;;
19687;SDS011;9993;52.008;4.732;2022-10-31T13:13:42;30.67;;;18.20;;
19687;SDS011;9993;52.008;4.732;2022-10-31T13:16:10;32.17;;;17.45;;
19687;SDS011;9993;52.008;4.732;2022-10-31T13:18:39;40.30;;;19.42;;
19687;SDS011;9993;52.008;4.732;2022-10-31T13:21:08;33.08;;;18.23;;
19687;SDS011;9993;52.008;4.732;2022-10-31T13:23:34;32.92;;;19.50;;
19687;SDS011;9993;52.008;4.732;2022-10-31T13:26:06;35.20;;;21.63;;
19687;SDS011;9993;52.008;4.732;2022-10-31T13:28:35;36.47;;;20.98;;
19687;SDS011;9993;52.008;4.732;2022-10-31T13:31:01;35.70;;;18.80;;
19687;SDS011;9993;52.008;4.732;2022-10-31T13:33:28;36.42;;;20.08;;
19687;SDS011;9993;52.008;4.732;2022-10-31T13:41:20;32.38;;;19.98;;
19687;SDS011;9993;52.008;4.732;2022-10-31T13:46:35;36.55;;;19.98;;
19687;SDS011;9993;52.008;4.732;2022-10-31T13:49:01;34.50;;;20.27;;
19687;SDS011;9993;52.008;4.732;2022-10-31T13:51:27;35.28;;;20.83;;
19687;SDS011;9993;52.008;4.732;2022-10-31T13:56:21;38.25;;;20.90;;
19687;SDS011;9993;52.008;4.732;2022-10-31T13:58:58;41.65;;;21.13;;
19687;SDS011;9993;52.008;4.732;2022-10-31T14:01:24;33.88;;;20.38;;
19687;SDS011;9993;52.008;4.732;2022-10-31T14:04:03;40.80;;;22.73;;
19687;SDS011;9993;52.008;4.732;2022-10-31T14:06:36;41.95;;;23.00;;
19687;SDS011;9993;52.008;4.732;2022-10-31T14:09:02;39.25;;;22.10;;
19687;SDS011;9993;52.008;4.732;2022-10-31T14:11:27;38.15;;;20.40;;
19687;SDS011;9993;52.008;4.732;2022-10-31T14:13:54;36.53;;;21.55;;
19687;SDS011;9993;52.008;4.732;2022-10-31T14:16:20;55.70;;;36.28;;
19687;SDS011;9993;52.008;4.732;2022-10-31T14:19:05;37.97;;;23.20;;
19687;SDS011;9993;52.008;4.732;2022-10-31T14:21:35;41.22;;;22.80;;
19687;SDS011;9993;52.008;4.732;2022-10-31T14:24:01;40.33;;;23.23;;
19687;SDS011;9993;52.008;4.732;2022-10-31T14:26:37;44.58;;;25.58;;
19687;SDS011;9993;52.008;4.732;2022-10-31T14:29:20;47.22;;;25.52;;
19687;SDS011;9993;52.008;4.732;2022-10-31T14:42:04;40.55;;;21.67;;
19687;SDS011;9993;52.008;4.732;2022-10-31T14:50:04;37.38;;;21.85;;
19687;SDS011;9993;52.008;4.732;2022-10-31T14:52:35;40.42;;;21.65;;
19687;SDS011;9993;52.008;4.732;2022-10-31T14:55:00;44.05;;;22.42;;
19687;SDS011;9993;52.008;4.732;2022-10-31T14:59:53;42.30;;;21.88;;
19687;SDS011;9993;52.008;4.732;2022-10-31T15:02:22;37.03;;;20.85;;
19687;SDS011;9993;52.008;4.732;2022-10-31T15:04:48;40.42;;;23.70;;
19687;SDS011;9993;52.008;4.732;2022-10-31T15:07:16;38.58;;;21.08;;
19687;SDS011;9993;52.008;4.732;2022-10-31T15:09:42;36.00;;;22.25;;
19687;SDS011;9993;52.008;4.732;2022-10-31T15:14:49;37.92;;;20.73;;
19687;SDS011;9993;52.008;4.732;2022-10-31T15:17:14;42.15;;;22.40;;
19687;SDS011;9993;52.008;4.732;2022-10-31T15:19:40;36.22;;;21.55;;
19687;SDS011;9993;52.008;4.732;2022-10-31T15:22:07;41.88;;;22.25;;
19687;SDS011;9993;52.008;4.732;2022-10-31T15:24:36;41.97;;;21.85;;
19687;SDS011;9993;52.008;4.732;2022-10-31T15:27:02;43.97;;;22.60;;
19687;SDS011;9993;52.008;4.732;2022-10-31T15:29:27;38.25;;;20.92;;
19687;SDS011;9993;52.008;4.732;2022-10-31T15:34:41;45.17;;;23.02;;
19687;SDS011;9993;52.008;4.732;2022-10-31T15:37:08;46.20;;;23.30;;
19687;SDS011;9993;52.008;4.732;2022-10-31T15:39:34;44.15;;;23.55;;
19687;SDS011;9993;52.008;4.732;2022-10-31T15:41:59;39.50;;;21.38;;
19687;SDS011;9993;52.008;4.732;2022-10-31T15:47:01;45.50;;;21.65;;
19687;SDS011;9993;52.008;4.732;2022-10-31T15:49:37;40.92;;;23.15;;
19687;SDS011;9993;52.008;4.732;2022-10-31T15:52:09;42.97;;;22.45;;
19687;SDS011;9993;52.008;4.732;2022-10-31T15:54:36;45.45;;;22.58;;
19687;SDS011;9993;52.008;4.732;2022-10-31T15:57:11;40.08;;;22.38;;
19687;SDS011;9993;52.008;4.732;2022-10-31T15:59:36;43.55;;;22.73;;
19687;SDS011;9993;52.008;4.732;2022-10-31T16:02:03;43.70;;;24.02;;
19687;SDS011;9993;52.008;4.732;2022-10-31T16:04:33;42.85;;;22.88;;
19687;SDS011;9993;52.008;4.732;2022-10-31T16:07:00;43.22;;;23.27;;
19687;SDS011;9993;52.008;4.732;2022-10-31T16:09:25;44.03;;;24.35;;
19687;SDS011;9993;52.008;4.732;2022-10-31T16:11:51;46.35;;;24.58;;
19687;SDS011;9993;52.008;4.732;2022-10-31T16:14:17;44.30;;;23.58;;
19687;SDS011;9993;52.008;4.732;2022-10-31T16:16:45;47.50;;;24.35;;
19687;SDS011;9993;52.008;4.732;2022-10-31T16:19:24;43.05;;;24.98;;
19687;SDS011;9993;52.008;4.732;2022-10-31T16:21:54;45.15;;;24.00;;
19687;SDS011;9993;52.008;4.732;2022-10-31T16:24:23;44.10;;;23.38;;
19687;SDS011;9993;52.008;4.732;2022-10-31T16:26:50;43.75;;;22.80;;
19687;SDS011;9993;52.008;4.732;2022-10-31T16:29:23;45.42;;;22.60;;
19687;SDS011;9993;52.008;4.732;2022-10-31T16:31:49;46.42;;;21.73;;
19687;SDS011;9993;52.008;4.732;2022-10-31T16:34:17;35.28;;;20.50;;
19687;SDS011;9993;52.008;4.732;2022-10-31T16:36:43;33.50;;;19.80;;
19687;SDS011;9993;52.008;4.732;2022-10-31T16:39:08;39.42;;;21.08;;
19687;SDS011;9993;52.008;4.732;2022-10-31T16:41:40;31.33;;;18.05;;
19687;SDS011;9993;52.008;4.732;2022-10-31T16:44:14;38.55;;;20.15;;
19687;SDS011;9993;52.008;4.732;2022-10-31T16:46:41;34.00;;;19.23;;
19687;SDS011;9993;52.008;4.732;2022-10-31T16:49:08;33.08;;;18.75;;
19687;SDS011;9993;52.008;4.732;2022-10-31T16:51:33;30.33;;;17.50;;
19687;SDS011;9993;52.008;4.732;2022-10-31T16:53:58;36.45;;;17.05;;